createdAt,value
2022-10-11T13:01:08.509Z,1.63
2022-10-11T13:04:51.378Z,1.93
2022-10-11T13:07:34.039Z,0.98
2022-10-11T13:11:04.148Z,1.77
2022-10-11T13:18:15.508Z,1.30
2022-10-11T13:29:14.634Z,1.42
2022-10-11T13:36:51.861Z,1.63
2022-10-11T13:40:09.571Z,1.70
2022-10-11T13:46:42.117Z,1.50
2022-10-11T13:50:22.752Z,1.50
2022-10-11T14:00:17.997Z,1.77
2022-10-11T14:03:52.448Z,1.77
2022-10-11T14:08:26.754Z,1.65
2022-10-11T14:14:21.773Z,1.50
2022-10-11T14:18:15.079Z,1.40
2022-10-11T14:21:09.515Z,1.85
2022-10-11T14:37:03.571Z,1.20
2022-10-11T14:47:49.676Z,1.08
2022-10-11T14:50:18.266Z,1.20
2022-10-11T14:54:25.932Z,1.17
2022-10-11T14:56:43.244Z,1.00
2022-10-11T14:59:44.000Z,1.30
2022-10-11T15:02:57.383Z,1.08
2022-10-11T15:09:35.279Z,1.10
2022-10-11T15:15:33.363Z,1.30
2022-10-11T15:18:48.232Z,1.60
2022-10-11T15:25:42.967Z,1.15
2022-10-11T15:29:04.206Z,1.33
2022-10-11T15:31:54.153Z,1.13
2022-10-11T15:37:14.891Z,0.95
2022-10-11T15:40:13.546Z,1.27
2022-10-11T15:44:45.882Z,1.40
2022-10-11T15:47:32.440Z,1.13
2022-10-11T15:51:12.187Z,1.55
2022-10-11T15:54:13.274Z,1.30
2022-10-11T15:57:12.705Z,1.10
2022-10-11T16:00:41.119Z,0.95
2022-10-11T16:03:32.755Z,0.82
2022-10-11T16:09:39.697Z,0.77
2022-10-11T16:16:20.586Z,1.40
2022-10-11T16:23:13.320Z,1.10
2022-10-11T16:26:26.476Z,0.95
2022-10-11T16:29:34.863Z,1.30
2022-10-11T16:32:34.466Z,1.33
2022-10-11T16:39:11.986Z,1.08
2022-10-11T16:51:41.214Z,1.42
2022-10-11T16:54:52.473Z,2.25
2022-10-11T16:57:48.679Z,1.92
2022-10-11T17:01:00.550Z,1.40
2022-10-11T17:04:15.252Z,1.77
2022-10-11T17:07:21.864Z,1.88
2022-10-11T17:10:33.017Z,2.00
2022-10-11T17:14:14.530Z,2.65
2022-10-11T17:22:09.893Z,2.20
2022-10-11T17:24:59.791Z,1.42
2022-10-11T17:31:49.329Z,1.30
2022-10-11T17:38:52.163Z,0.82
2022-10-11T17:41:42.086Z,1.40
2022-10-11T17:44:44.357Z,1.25
2022-10-11T17:47:48.964Z,1.30
2022-10-11T17:50:50.409Z,1.52
2022-10-11T17:54:07.956Z,1.30
2022-10-11T17:56:52.347Z,1.30
2022-10-11T17:59:53.076Z,1.20
2022-10-11T18:02:59.106Z,1.83
2022-10-11T18:05:46.011Z,1.38
2022-10-11T18:08:55.668Z,1.30
2022-10-11T18:11:38.429Z,1.55
2022-10-11T18:17:51.098Z,1.23
2022-10-11T18:20:32.998Z,1.27
2022-10-11T18:23:56.009Z,1.17
2022-10-11T18:30:26.216Z,1.48
2022-10-11T18:33:15.511Z,1.50
2022-10-11T18:36:21.285Z,1.70
2022-10-11T18:42:57.653Z,1.98
2022-10-11T18:45:35.793Z,2.08
2022-10-11T18:48:25.649Z,1.90
2022-10-11T18:51:46.544Z,2.00
2022-10-11T18:55:01.790Z,2.58
2022-10-11T18:57:52.632Z,2.53
2022-10-11T19:01:41.069Z,2.53
2022-10-11T19:04:31.289Z,2.17
2022-10-11T19:10:38.947Z,2.08
2022-10-11T19:13:50.855Z,2.00
2022-10-11T19:20:48.636Z,2.63
2022-10-11T19:23:49.296Z,1.88
2022-10-11T19:31:14.348Z,2.25
2022-10-11T19:35:07.922Z,2.50
2022-10-11T19:36:52.788Z,2.47
2022-10-11T19:40:35.863Z,2.00
2022-10-11T19:48:06.513Z,1.95
2022-10-11T19:51:15.273Z,1.70
2022-10-11T19:54:01.075Z,1.77
2022-10-11T19:57:22.736Z,2.10
2022-10-11T20:00:34.949Z,1.75
2022-10-11T20:24:15.681Z,2.30
2022-10-11T20:27:24.169Z,1.70
2022-10-11T20:30:53.471Z,2.10
2022-10-11T20:33:42.820Z,2.22
2022-10-11T20:40:02.888Z,1.58
2022-10-11T20:43:31.833Z,2.40
2022-10-11T20:50:18.447Z,2.10
2022-10-11T20:56:46.748Z,2.67
2022-10-11T21:03:31.176Z,3.63
2022-10-11T21:06:59.818Z,3.33
2022-10-11T21:13:14.489Z,2.55
2022-10-11T21:16:53.377Z,2.70
2022-10-11T21:20:01.215Z,3.10
2022-10-11T21:32:47.642Z,3.40
2022-10-11T21:35:41.259Z,3.10
2022-10-11T21:38:46.209Z,3.20
2022-10-11T21:41:59.386Z,2.80
2022-10-11T21:44:43.578Z,2.50
2022-10-11T21:47:39.307Z,3.58
2022-10-11T21:50:24.197Z,3.67
2022-10-11T21:53:04.105Z,3.28
2022-10-11T21:55:45.091Z,3.05
2022-10-11T21:58:34.128Z,2.80
2022-10-11T22:01:40.123Z,2.90
2022-10-11T22:04:40.990Z,2.88
2022-10-11T22:07:37.655Z,3.10
2022-10-11T22:10:43.930Z,3.13
2022-10-11T22:17:32.974Z,2.40
2022-10-11T22:22:17.111Z,2.65
2022-10-11T22:24:03.603Z,2.50
2022-10-11T22:27:04.027Z,2.40
2022-10-11T22:30:07.080Z,1.92
2022-10-11T22:32:50.449Z,2.10
2022-10-11T22:35:58.380Z,2.28
2022-10-11T22:39:08.282Z,2.10
2022-10-11T22:42:09.150Z,2.47
2022-10-11T22:44:58.643Z,2.75
2022-10-11T22:47:56.327Z,2.20
2022-10-11T22:50:44.468Z,2.65
2022-10-11T22:55:21.920Z,2.17
2022-10-11T22:57:16.810Z,2.45
2022-10-11T23:00:13.584Z,2.30
2022-10-11T23:03:07.246Z,2.35
2022-10-11T23:06:12.088Z,2.55
2022-10-11T23:09:07.098Z,2.33
2022-10-11T23:12:09.312Z,2.38
2022-10-11T23:14:55.409Z,2.45
2022-10-11T23:20:42.737Z,2.05
2022-10-11T23:23:30.722Z,2.20
2022-10-11T23:26:29.097Z,1.60
2022-10-11T23:29:31.631Z,1.77
2022-10-11T23:32:11.361Z,1.90
2022-10-11T23:34:57.682Z,2.00
2022-10-11T23:37:52.006Z,1.90
2022-10-11T23:40:31.470Z,2.42
2022-10-11T23:43:23.748Z,1.90
2022-10-11T23:46:06.463Z,1.98
2022-10-11T23:49:09.237Z,2.15
2022-10-11T23:51:50.947Z,1.90
2022-10-11T23:54:44.406Z,1.60
2022-10-11T23:57:30.021Z,1.88
